Time;durP1;ratioP1;P1;durP2;ratioP2;P2;SDS_P1;SDS_P2;PMS_P1;PMS_P2;Temp;Humidity;BMP_temperature;BMP_pressure;BME280_temperature;BME280_humidity;BME280_pressure;Samples;Min_cycle;Max_cycle;Signal;HPM_P1;HPM_P2
2021/12/22 00:01:48;;;;;;;0.60;0.60;;;-3.20;99.90;;;;;;5072289;28;20194;-71
2021/12/22 00:04:14;;;;;;;3.60;1.90;;;-3.10;99.90;;;;;;5072115;28;20587;-71
2021/12/22 00:06:39;;;;;;;0.10;0.10;;;-3.00;99.90;;;;;;5041009;28;20207;-71
2021/12/22 00:09:06;;;;;;;2.80;2.70;;;-3.00;99.90;;;;;;5054724;28;20543;-74
2021/12/22 00:11:32;;;;;;;1.33;1.23;;;-2.90;99.90;;;;;;5067607;28;20266;-71
2021/12/22 00:13:57;;;;;;;0.57;0.57;;;-3.00;99.90;;;;;;5064071;28;20185;-70
2021/12/22 00:16:23;;;;;;;0.00;0.00;;;-3.10;99.90;;;;;;5071844;28;20192;-70
2021/12/22 00:18:49;;;;;;;4.80;1.27;;;-3.10;99.90;;;;;;5072130;28;20183;-70
2021/12/22 00:21:14;;;;;;;0.20;0.20;;;-2.90;99.90;;;;;;5072174;28;20207;-70
2021/12/22 00:23:41;;;;;;;0.40;0.40;;;-2.80;99.90;;;;;;5072343;28;20545;-70
2021/12/22 00:26:06;;;;;;;0.10;0.10;;;-2.70;99.90;;;;;;5071771;28;20246;-71
2021/12/22 00:28:33;;;;;;;0.17;0.17;;;-2.60;99.90;;;;;;5072289;28;20706;-70
2021/12/22 00:30:59;;;;;;;0.97;0.90;;;-2.60;99.90;;;;;;5072142;28;20227;-70
2021/12/22 00:33:27;;;;;;;9.13;5.73;;;-2.60;99.90;;;;;;5054312;28;20183;-69
2021/12/22 00:35:53;;;;;;;2.63;2.43;;;-2.70;99.90;;;;;;5073077;28;20184;-73
2021/12/22 00:38:21;;;;;;;0.20;0.20;;;-2.70;99.90;;;;;;5070974;28;20255;-72
2021/12/22 00:40:47;;;;;;;0.73;0.73;;;-2.80;99.90;;;;;;5061888;28;20178;-72
2021/12/22 00:43:13;;;;;;;2.00;1.90;;;-2.80;99.90;;;;;;5072516;28;20186;-72
2021/12/22 00:45:39;;;;;;;4.33;2.00;;;-2.80;99.90;;;;;;5058575;28;20219;-71
2021/12/22 00:48:07;;;;;;;5.60;0.73;;;-2.80;99.90;;;;;;5064750;28;20223;-71
2021/12/22 00:50:34;;;;;;;0.30;0.30;;;-2.90;99.90;;;;;;5054098;28;20675;-71
2021/12/22 00:53:00;;;;;;;0.20;0.20;;;-3.00;99.90;;;;;;5059791;28;21059;-74
2021/12/22 00:55:26;;;;;;;0.50;0.50;;;-3.00;99.90;;;;;;5059034;28;20423;-72
2021/12/22 00:57:52;;;;;;;0.10;0.10;;;-3.10;99.90;;;;;;5072383;28;20225;-72
2021/12/22 01:00:21;;;;;;;0.70;0.40;;;-3.10;99.90;;;;;;5072835;28;20786;-74
2021/12/22 01:02:47;;;;;;;1.33;1.33;;;-3.00;99.90;;;;;;5074338;28;20259;-72
2021/12/22 01:05:15;;;;;;;0.47;0.47;;;-2.90;99.90;;;;;;5076989;28;20172;-72
2021/12/22 01:07:45;;;;;;;3.40;1.13;;;-2.90;99.90;;;;;;5058487;28;20286;-71
2021/12/22 01:10:12;;;;;;;0.97;0.97;;;-2.90;99.90;;;;;;5078384;28;20209;-72
2021/12/22 01:12:38;;;;;;;0.30;0.30;;;-2.90;99.90;;;;;;5078957;28;20183;-73
2021/12/22 01:15:08;;;;;;;2.83;1.90;;;-2.90;99.90;;;;;;5075044;28;20769;-74
2021/12/22 01:17:40;;;;;;;1.70;1.60;;;-2.80;99.90;;;;;;5074817;28;20195;-73
2021/12/22 01:20:15;;;;;;;3.67;2.17;;;-2.80;99.90;;;;;;5075615;28;20182;-72
2021/12/22 01:25:08;;;;;;;0.20;0.20;;;-2.80;99.90;;;;;;5076340;28;20418;-73
2021/12/22 01:27:39;;;;;;;1.37;1.27;;;-2.80;99.90;;;;;;5059015;28;20221;-73
2021/12/22 01:30:08;;;;;;;0.50;0.50;;;-2.80;99.90;;;;;;5059799;28;20419;-73
2021/12/22 01:32:34;;;;;;;2.57;2.00;;;-2.80;99.90;;;;;;5078096;28;20416;-73
2021/12/22 01:35:00;;;;;;;0.73;0.73;;;-2.70;99.90;;;;;;5058816;28;20256;-72
2021/12/22 01:37:26;;;;;;;0.00;0.00;;;-2.80;99.90;;;;;;5074129;28;20199;-72
2021/12/22 01:39:52;;;;;;;4.63;4.07;;;-2.70;99.90;;;;;;5062904;28;20196;-72
2021/12/22 01:42:17;;;;;;;3.73;3.50;;;-2.80;99.90;;;;;;5073289;28;20220;-73
2021/12/22 01:50:32;;;;;;;5.93;2.43;;;-3.10;99.90;;;;;;5074880;28;20781;-71
2021/12/22 01:53:04;;;;;;;0.43;0.43;;;-3.20;99.90;;;;;;5075030;28;20423;-74
2021/12/22 01:55:36;;;;;;;0.10;0.10;;;-3.20;99.90;;;;;;5074769;28;20777;-71
2021/12/22 01:58:03;;;;;;;1.03;0.90;;;-3.30;99.90;;;;;;5074335;28;20461;-71
2021/12/22 02:00:29;;;;;;;0.20;0.20;;;-3.40;99.90;;;;;;5056592;28;20422;-71
2021/12/22 02:02:56;;;;;;;0.50;0.50;;;-3.40;99.90;;;;;;5074483;28;20468;-71
2021/12/22 02:05:22;;;;;;;0.10;0.10;;;-3.50;99.90;;;;;;5074163;28;20414;-71
2021/12/22 02:07:49;;;;;;;1.27;1.23;;;-3.50;99.90;;;;;;5074087;28;20501;-72
2021/12/22 02:13:23;;;;;;;0.20;0.20;;;-3.50;99.90;;;;;;5011870;28;20509;-71
2021/12/22 02:15:49;;;;;;;3.40;3.13;;;-3.40;99.90;;;;;;5048233;28;20952;-69
2021/12/22 02:18:19;;;;;;;0.30;0.30;;;-3.40;99.90;;;;;;5054079;28;20427;-71
2021/12/22 02:20:49;;;;;;;0.37;0.37;;;-3.30;99.90;;;;;;5068831;28;20242;-71
2021/12/22 02:23:15;;;;;;;0.10;0.10;;;-3.30;99.90;;;;;;5074042;28;20505;-75
2021/12/22 02:25:50;;;;;;;0.00;0.00;;;-3.30;99.90;;;;;;5073833;28;20434;-72
2021/12/22 02:28:21;;;;;;;2.67;2.57;;;-3.30;99.90;;;;;;5074023;28;20439;-71
2021/12/22 02:30:47;;;;;;;0.77;0.77;;;-3.30;99.90;;;;;;5074259;28;20192;-72
2021/12/22 02:33:22;;;;;;;0.30;0.30;;;-3.30;99.90;;;;;;5073882;28;20601;-72
2021/12/22 02:38:29;;;;;;;1.73;1.63;;;-3.30;99.90;;;;;;5073309;28;20442;-71
2021/12/22 02:40:54;;;;;;;0.50;0.50;;;-3.30;99.90;;;;;;5060912;28;20426;-71
2021/12/22 02:43:22;;;;;;;1.13;1.13;;;-3.40;99.90;;;;;;5073867;28;20458;-72
2021/12/22 02:45:50;;;;;;;0.10;0.10;;;-3.40;99.90;;;;;;5054042;28;20186;-73
2021/12/22 02:48:15;;;;;;;0.97;0.97;;;-3.50;99.90;;;;;;5067485;28;20434;-72
2021/12/22 02:50:41;;;;;;;2.30;2.07;;;-3.40;99.90;;;;;;5073887;28;20425;-71
2021/12/22 02:53:16;;;;;;;0.77;0.77;;;-3.40;99.90;;;;;;5073130;28;20585;-72
2021/12/22 02:58:20;;;;;;;0.90;0.67;;;-3.50;99.90;;;;;;5073285;28;20798;-71
2021/12/22 03:03:27;;;;;;;0.20;0.20;;;-3.50;99.90;;;;;;5073429;28;20863;-73
2021/12/22 03:05:53;;;;;;;0.10;0.10;;;-3.50;99.90;;;;;;5073076;28;20193;-72
2021/12/22 03:08:19;;;;;;;0.97;0.97;;;-3.60;99.90;;;;;;5073281;28;20425;-72
2021/12/22 03:10:44;;;;;;;0.30;0.30;;;-3.50;99.90;;;;;;5073258;28;20553;-72
2021/12/22 03:13:10;;;;;;;0.50;0.50;;;-3.50;99.90;;;;;;5073100;28;20261;-74
2021/12/22 03:15:35;;;;;;;1.60;0.30;;;-3.50;99.90;;;;;;5073024;28;20212;-71
2021/12/22 03:18:04;;;;;;;0.47;0.47;;;-3.50;99.90;;;;;;5072454;28;20202;-71
2021/12/22 03:20:30;;;;;;;0.10;0.10;;;-3.60;99.90;;;;;;5073126;28;20189;-71
2021/12/22 03:22:55;;;;;;;0.40;0.40;;;-3.50;99.90;;;;;;5055041;28;21005;-71
2021/12/22 03:25:26;;;;;;;0.00;0.00;;;-3.50;99.90;;;;;;5072362;28;20178;-74
2021/12/22 03:27:53;;;;;;;0.77;0.77;;;-3.60;99.90;;;;;;5072345;28;20203;-72
2021/12/22 03:30:24;;;;;;;0.07;0.07;;;-3.70;99.90;;;;;;5054812;28;20454;-71
2021/12/22 03:32:49;;;;;;;0.47;0.47;;;-3.70;99.90;;;;;;5073062;28;20427;-71
2021/12/22 03:35:18;;;;;;;2.30;1.23;;;-3.80;99.90;;;;;;5054886;28;20444;-71
2021/12/22 03:37:51;;;;;;;0.00;0.00;;;-3.70;99.90;;;;;;5071755;28;20199;-71
2021/12/22 03:40:19;;;;;;;0.10;0.10;;;-3.70;99.90;;;;;;5041353;28;20429;-71
2021/12/22 03:42:46;;;;;;;0.60;0.60;;;-3.70;99.90;;;;;;5072493;28;20509;-71
2021/12/22 03:45:11;;;;;;;0.10;0.10;;;-3.80;99.90;;;;;;5072540;28;20402;-71
2021/12/22 03:47:37;;;;;;;1.07;1.07;;;-3.80;99.90;;;;;;5064204;28;20852;-70
2021/12/22 03:50:04;;;;;;;1.80;1.70;;;-3.70;99.90;;;;;;5054090;28;20185;-72
2021/12/22 03:52:29;;;;;;;0.17;0.17;;;-3.70;99.90;;;;;;5054420;28;20243;-70
2021/12/22 03:54:58;;;;;;;0.87;0.63;;;-3.70;99.90;;;;;;5072054;28;20785;-71
2021/12/22 03:57:27;;;;;;;0.00;0.00;;;-3.60;99.90;;;;;;5074416;22;20227;-69
2021/12/22 03:59:55;;;;;;;0.00;0.00;;;-3.60;99.90;;;;;;5029428;28;20469;-70
2021/12/22 04:02:22;;;;;;;0.10;0.10;;;-3.60;99.90;;;;;;5031634;28;20551;-70
2021/12/22 04:04:49;;;;;;;0.30;0.30;;;-3.60;99.90;;;;;;5031474;28;20930;-69
2021/12/22 04:07:16;;;;;;;0.23;0.23;;;-3.60;99.90;;;;;;5029685;28;20784;-69
2021/12/22 04:09:42;;;;;;;0.10;0.10;;;-3.60;99.90;;;;;;5047942;28;20506;-70
2021/12/22 04:12:08;;;;;;;0.33;0.33;;;-3.70;99.90;;;;;;5050526;28;21068;-69
2021/12/22 04:14:33;;;;;;;0.10;0.10;;;-3.80;99.90;;;;;;5051135;28;20189;-70
2021/12/22 04:16:59;;;;;;;1.37;1.37;;;-3.80;99.90;;;;;;5049709;28;20419;-69
2021/12/22 04:19:24;;;;;;;2.27;2.10;;;-3.80;99.90;;;;;;5049528;28;20207;-69
2021/12/22 04:21:51;;;;;;;0.20;0.20;;;-3.80;99.90;;;;;;5050026;28;20712;-70
2021/12/22 04:24:18;;;;;;;1.13;0.87;;;-3.80;99.90;;;;;;5049836;28;20196;-69
2021/12/22 04:26:44;;;;;;;0.20;0.20;;;-3.90;99.90;;;;;;5049653;28;20502;-70
2021/12/22 04:29:11;;;;;;;0.20;0.20;;;-3.80;99.90;;;;;;5051106;28;20994;-70
2021/12/22 04:31:37;;;;;;;0.00;0.00;;;-3.90;99.90;;;;;;5049833;28;20187;-70
2021/12/22 04:34:07;;;;;;;0.10;0.10;;;-3.90;99.90;;;;;;5050924;28;20522;-70
2021/12/22 04:36:33;;;;;;;1.00;1.00;;;-4.00;99.90;;;;;;5050607;28;20189;-70
2021/12/22 04:38:59;;;;;;;0.10;0.10;;;-3.90;99.90;;;;;;5046343;28;20429;-70
2021/12/22 04:41:26;;;;;;;0.73;0.73;;;-3.90;99.90;;;;;;5042464;28;20211;-70
2021/12/22 04:43:52;;;;;;;1.43;1.37;;;-4.00;99.90;;;;;;5051047;28;20825;-70
2021/12/22 04:46:19;;;;;;;0.50;0.50;;;-4.00;99.90;;;;;;5044798;28;20421;-70
2021/12/22 04:48:45;;;;;;;1.80;1.60;;;-4.00;99.90;;;;;;5048963;28;20423;-70
2021/12/22 04:51:23;;;;;;;0.47;0.47;;;-4.00;99.90;;;;;;5051111;28;20941;-70
2021/12/22 04:53:54;;;;;;;0.10;0.10;;;-4.00;99.90;;;;;;5051144;28;20200;-69
2021/12/22 04:56:19;;;;;;;0.00;0.00;;;-4.10;99.90;;;;;;5050611;28;20851;-69
2021/12/22 04:58:45;;;;;;;1.93;1.67;;;-4.00;99.90;;;;;;5050643;28;20538;-69
2021/12/22 05:01:11;;;;;;;1.27;1.17;;;-4.00;99.90;;;;;;5050808;28;20207;-70
2021/12/22 05:03:36;;;;;;;0.20;0.20;;;-4.00;99.90;;;;;;5050790;28;20182;-69
2021/12/22 05:06:02;;;;;;;0.00;0.00;;;-4.00;99.90;;;;;;5050599;28;20175;-69
2021/12/22 05:08:29;;;;;;;0.50;0.50;;;-3.90;99.90;;;;;;5049323;28;20198;-69
2021/12/22 05:10:55;;;;;;;0.87;0.27;;;-3.80;99.90;;;;;;5050790;28;20473;-70
2021/12/22 05:13:21;;;;;;;0.97;0.97;;;-3.80;99.90;;;;;;5050469;28;20903;-69
2021/12/22 05:15:46;;;;;;;0.17;0.17;;;-3.80;99.90;;;;;;5049609;28;20309;-68
2021/12/22 05:18:23;;;;;;;0.00;0.00;;;-3.80;99.90;;;;;;5050937;28;20244;-70
2021/12/22 05:20:49;;;;;;;0.10;0.10;;;-3.80;99.90;;;;;;5050672;28;20637;-70
2021/12/22 05:23:16;;;;;;;1.40;1.40;;;-3.80;99.90;;;;;;5050781;28;20431;-70
2021/12/22 05:25:42;;;;;;;0.43;0.43;;;-3.80;99.90;;;;;;5049210;28;20428;-70
2021/12/22 05:28:08;;;;;;;0.70;0.70;;;-3.80;99.90;;;;;;5048967;28;20854;-70
2021/12/22 05:30:33;;;;;;;0.10;0.10;;;-3.80;99.90;;;;;;5050566;28;20588;-70
2021/12/22 05:32:59;;;;;;;0.37;0.37;;;-3.80;99.90;;;;;;5049649;28;20261;-70
2021/12/22 05:35:24;;;;;;;0.37;0.37;;;-3.70;99.90;;;;;;5050410;28;20177;-70
2021/12/22 05:37:50;;;;;;;0.23;0.23;;;-3.70;99.90;;;;;;5050280;28;20283;-70
2021/12/22 05:40:16;;;;;;;0.10;0.10;;;-3.60;99.90;;;;;;5037083;28;20174;-71
2021/12/22 05:42:42;;;;;;;2.37;1.80;;;-3.60;99.90;;;;;;5050738;28;20221;-70
2021/12/22 05:45:08;;;;;;;0.83;0.83;;;-3.50;99.90;;;;;;5050415;28;20171;-70
2021/12/22 05:47:34;;;;;;;0.00;0.00;;;-3.50;99.90;;;;;;5042388;28;20410;-70
2021/12/22 05:50:00;;;;;;;0.00;0.00;;;-3.50;99.90;;;;;;5052241;28;20426;-70
2021/12/22 05:52:26;;;;;;;0.30;0.30;;;-3.50;99.90;;;;;;5052752;28;20707;-71
2021/12/22 05:54:51;;;;;;;0.07;0.07;;;-3.50;99.90;;;;;;5053881;28;20505;-70
2021/12/22 05:57:17;;;;;;;0.87;0.87;;;-3.50;99.90;;;;;;5053315;28;20185;-69
2021/12/22 05:59:42;;;;;;;0.10;0.10;;;-3.60;99.90;;;;;;5053810;28;20190;-71
2021/12/22 06:02:08;;;;;;;0.40;0.40;;;-3.60;99.90;;;;;;5053741;28;20675;-70
2021/12/22 06:04:33;;;;;;;1.83;1.77;;;-3.70;99.90;;;;;;5038717;28;20699;-70
2021/12/22 06:06:59;;;;;;;0.10;0.10;;;-3.60;99.90;;;;;;5028070;28;20713;-70
2021/12/22 06:09:24;;;;;;;0.40;0.40;;;-3.60;99.90;;;;;;5029555;28;20195;-70
2021/12/22 06:11:50;;;;;;;0.10;0.10;;;-3.50;99.90;;;;;;5033922;28;20174;-70
2021/12/22 06:14:16;;;;;;;0.97;0.97;;;-3.50;99.90;;;;;;5052512;28;20178;-70
2021/12/22 06:16:41;;;;;;;0.53;0.53;;;-3.40;99.90;;;;;;5052681;28;20178;-70
2021/12/22 06:19:09;;;;;;;1.20;1.00;;;-3.40;99.90;;;;;;5053035;28;20234;-70
2021/12/22 06:21:35;;;;;;;0.00;0.00;;;-3.40;99.90;;;;;;5053071;28;20206;-70
2021/12/22 06:24:02;;;;;;;2.10;2.00;;;-3.40;99.90;;;;;;5052279;28;20415;-70
2021/12/22 06:26:27;;;;;;;6.70;2.33;;;-3.50;99.90;;;;;;5052704;28;20418;-70
2021/12/22 06:28:53;;;;;;;0.10;0.10;;;-3.60;99.90;;;;;;5052839;28;20488;-70
2021/12/22 06:31:18;;;;;;;3.17;0.40;;;-3.60;99.90;;;;;;5053319;28;20174;-70
2021/12/22 06:33:44;;;;;;;0.03;0.03;;;-3.60;99.90;;;;;;5052260;28;20178;-70
2021/12/22 06:36:10;;;;;;;0.03;0.03;;;-3.70;99.90;;;;;;5052768;28;20190;-70
2021/12/22 06:38:36;;;;;;;0.73;0.73;;;-3.60;99.90;;;;;;5051199;28;20199;-70
2021/12/22 06:41:03;;;;;;;0.57;0.57;;;-3.60;99.90;;;;;;5041033;28;20498;-70
2021/12/22 06:43:28;;;;;;;0.00;0.00;;;-3.70;99.90;;;;;;5052787;28;20191;-68
2021/12/22 06:45:54;;;;;;;1.30;1.30;;;-3.80;99.90;;;;;;5049630;28;20441;-69
2021/12/22 06:48:20;;;;;;;0.83;0.83;;;-3.80;99.90;;;;;;5047348;28;20202;-69
2021/12/22 06:50:45;;;;;;;0.13;0.13;;;-3.80;99.90;;;;;;5052612;28;20240;-70
2021/12/22 06:53:11;;;;;;;0.20;0.20;;;-3.90;99.90;;;;;;5052521;28;20189;-69
2021/12/22 06:55:36;;;;;;;7.10;2.67;;;-3.90;99.90;;;;;;5052408;28;20198;-69
2021/12/22 06:58:02;;;;;;;0.00;0.00;;;-3.90;99.90;;;;;;5052181;28;20217;-70
2021/12/22 07:00:28;;;;;;;0.00;0.00;;;-3.90;99.90;;;;;;5051785;28;20192;-72
2021/12/22 07:02:56;;;;;;;1.70;1.30;;;-3.90;99.90;;;;;;5051898;28;20680;-71
2021/12/22 07:05:21;;;;;;;1.03;1.03;;;-3.80;99.90;;;;;;5052086;28;20407;-71
2021/12/22 07:07:47;;;;;;;0.10;0.10;;;-3.60;99.90;;;;;;5051919;28;20450;-72
2021/12/22 07:10:13;;;;;;;0.10;0.10;;;-3.50;99.90;;;;;;5052130;28;20196;-72
2021/12/22 07:12:45;;;;;;;3.53;3.30;;;-3.40;99.90;;;;;;5051751;28;20418;-72
2021/12/22 07:15:13;;;;;;;6.70;3.97;;;-3.40;99.90;;;;;;5050877;28;20666;-69
2021/12/22 07:17:39;;;;;;;0.10;0.10;;;-3.50;99.90;;;;;;5051426;28;20671;-70
2021/12/22 07:20:05;;;;;;;0.10;0.10;;;-3.60;99.90;;;;;;5051847;28;21140;-70
2021/12/22 07:22:32;;;;;;;0.67;0.67;;;-3.60;99.90;;;;;;5051548;28;20458;-70
2021/12/22 07:24:58;;;;;;;0.53;0.53;;;-3.60;99.90;;;;;;5051825;28;20964;-70
2021/12/22 07:27:23;;;;;;;0.63;0.63;;;-3.60;99.90;;;;;;5050614;28;20415;-70
2021/12/22 07:29:49;;;;;;;0.00;0.00;;;-3.60;99.90;;;;;;5051541;28;20189;-70
2021/12/22 07:32:14;;;;;;;0.10;0.10;;;-3.70;99.90;;;;;;5050094;28;20201;-69
2021/12/22 07:34:51;;;;;;;1.80;1.07;;;-3.70;99.90;;;;;;5046131;28;20193;-69
2021/12/22 07:37:45;;;;;;;0.97;0.87;;;-3.60;99.90;;;;;;5047775;28;20189;-69
2021/12/22 07:40:13;;;;;;;0.00;0.00;;;-3.50;99.90;;;;;;5037962;28;20969;-69
2021/12/22 07:42:39;;;;;;;0.67;0.67;;;-3.40;99.90;;;;;;5051386;28;20477;-70
2021/12/22 07:45:09;;;;;;;0.40;0.40;;;-3.30;99.90;;;;;;5051528;28;20414;-69
2021/12/22 07:47:34;;;;;;;0.83;0.47;;;-3.30;99.90;;;;;;5043231;28;20263;-70
2021/12/22 07:50:00;;;;;;;0.43;0.43;;;-3.20;99.90;;;;;;5051108;28;20861;-70
2021/12/22 07:52:27;;;;;;;0.20;0.20;;;-3.20;99.90;;;;;;5051335;28;20535;-69
2021/12/22 07:54:54;;;;;;;2.90;2.73;;;-3.10;99.90;;;;;;5051137;28;20419;-70
2021/12/22 07:57:20;;;;;;;1.80;0.80;;;-3.00;99.90;;;;;;5050696;28;20502;-70
2021/12/22 07:59:45;;;;;;;0.40;0.40;;;-3.00;99.90;;;;;;5051283;28;20497;-70
2021/12/22 08:02:12;;;;;;;0.10;0.10;;;-2.90;99.90;;;;;;5051391;28;20253;-70
2021/12/22 08:04:38;;;;;;;1.73;1.23;;;-2.90;99.90;;;;;;5051075;28;20179;-70
2021/12/22 08:07:04;;;;;;;1.30;1.03;;;-2.90;99.90;;;;;;5050856;28;20406;-69
2021/12/22 08:09:30;;;;;;;1.70;1.67;;;-2.90;99.90;;;;;;5051392;28;20231;-70
2021/12/22 08:11:56;;;;;;;2.63;2.47;;;-2.90;99.90;;;;;;5050347;28;20178;-70
2021/12/22 08:14:23;;;;;;;1.23;1.13;;;-2.90;99.90;;;;;;5049849;28;20670;-70
2021/12/22 08:16:50;;;;;;;0.00;0.00;;;-2.80;99.90;;;;;;5051049;28;20407;-70
2021/12/22 08:19:16;;;;;;;1.27;1.27;;;-2.80;99.90;;;;;;5051112;28;20725;-71
2021/12/22 08:21:44;;;;;;;0.67;0.67;;;-2.80;99.90;;;;;;5050992;28;20451;-70
2021/12/22 08:24:09;;;;;;;0.73;0.73;;;-2.80;99.90;;;;;;5051099;28;20206;-70
2021/12/22 08:26:35;;;;;;;1.23;1.00;;;-2.70;99.90;;;;;;5050558;28;20215;-70
2021/12/22 08:29:01;;;;;;;0.03;0.03;;;-2.70;99.90;;;;;;5050830;28;20195;-70
2021/12/22 08:31:26;;;;;;;1.80;1.73;;;-2.70;99.90;;;;;;5050843;28;20238;-70
2021/12/22 08:33:54;;;;;;;2.53;2.33;;;-2.70;99.90;;;;;;5050979;28;20568;-70
2021/12/22 08:39:20;;;;;;;0.83;0.67;;;-2.50;99.90;;;;;;5009486;28;20705;-70
2021/12/22 08:41:47;;;;;;;0.20;0.20;;;-2.50;99.90;;;;;;5044899;28;20301;-71
2021/12/22 08:44:17;;;;;;;1.10;1.10;;;-2.40;99.90;;;;;;5051064;28;20601;-68
2021/12/22 08:46:49;;;;;;;2.57;0.90;;;-2.40;99.90;;;;;;5042528;28;20652;-71
2021/12/22 08:49:16;;;;;;;1.23;1.23;;;-2.30;99.90;;;;;;5050510;28;20207;-70
2021/12/22 08:51:41;;;;;;;0.67;0.67;;;-2.30;99.90;;;;;;5050761;28;20181;-69
2021/12/22 08:54:07;;;;;;;1.10;1.10;;;-2.20;99.90;;;;;;5050696;28;20731;-69
2021/12/22 08:56:33;;;;;;;0.93;0.80;;;-2.00;99.90;;;;;;5050367;28;20210;-69
2021/12/22 08:58:59;;;;;;;2.53;2.40;;;-2.00;99.90;;;;;;5050613;28;20567;-70
2021/12/22 09:01:26;;;;;;;1.17;1.10;;;-1.90;99.90;;;;;;5050226;28;20206;-70
2021/12/22 09:03:52;;;;;;;0.30;0.30;;;-1.80;99.90;;;;;;5050496;28;20327;-68
2021/12/22 09:06:18;;;;;;;2.27;0.73;;;-1.70;99.90;;;;;;5050274;28;20176;-70
2021/12/22 09:08:44;;;;;;;0.40;0.40;;;-1.60;99.90;;;;;;5049261;28;20222;-70
2021/12/22 09:11:11;;;;;;;0.77;0.77;;;-1.60;99.90;;;;;;5050093;28;20183;-70
2021/12/22 09:13:38;;;;;;;1.70;1.03;;;-1.60;99.90;;;;;;5050160;28;20192;-70
2021/12/22 09:16:06;;;;;;;0.60;0.60;;;-1.60;99.90;;;;;;5048638;28;20508;-70
2021/12/22 09:18:34;;;;;;;1.03;1.03;;;-1.60;99.90;;;;;;5050397;28;20272;-70
2021/12/22 09:20:59;;;;;;;1.07;1.07;;;-1.60;99.90;;;;;;5049920;28;20179;-70
2021/12/22 09:23:25;;;;;;;0.10;0.10;;;-1.60;99.90;;;;;;5051298;28;20255;-69
2021/12/22 09:25:51;;;;;;;0.70;0.70;;;-1.50;99.90;;;;;;5052463;28;20183;-68
2021/12/22 09:28:16;;;;;;;3.13;2.03;;;-1.50;99.90;;;;;;5054250;28;20204;-71
2021/12/22 09:30:44;;;;;;;0.70;0.70;;;-1.50;99.90;;;;;;5053502;28;20210;-70
2021/12/22 09:33:13;;;;;;;0.83;0.33;;;-1.40;99.90;;;;;;5039834;28;20640;-71
2021/12/22 09:35:40;;;;;;;0.30;0.30;;;-1.40;99.90;;;;;;5050552;28;20176;-71
2021/12/22 09:38:07;;;;;;;1.67;1.60;;;-1.40;99.90;;;;;;5053840;28;20284;-71
2021/12/22 09:40:33;;;;;;;1.33;1.20;;;-1.30;99.90;;;;;;5040035;28;20180;-71
2021/12/22 09:42:58;;;;;;;0.10;0.10;;;-1.30;99.90;;;;;;5053704;28;20586;-70
2021/12/22 09:45:25;;;;;;;1.00;1.00;;;-1.20;99.90;;;;;;5053997;28;20230;-71
2021/12/22 09:48:49;;;;;;;0.17;0.17;;;-1.10;99.90;;;;;;5045524;28;20192;-70
2021/12/22 09:53:16;;;;;;;5.23;2.47;;;-1.00;99.90;;;;;;5053775;28;20287;-69
2021/12/22 09:55:43;;;;;;;2.17;2.07;;;-1.00;99.90;;;;;;5053526;28;20605;-70
2021/12/22 09:58:10;;;;;;;1.63;1.63;;;-0.90;99.90;;;;;;5101330;22;20220;-72
2021/12/22 10:00:38;;;;;;;5.53;3.40;;;-0.90;99.90;;;;;;5035659;28;20238;-70
2021/12/22 10:03:06;;;;;;;2.83;2.63;;;-0.80;99.90;;;;;;5040760;28;20213;-70
2021/12/22 10:05:32;;;;;;;3.63;1.33;;;-0.80;99.90;;;;;;5041980;28;20268;-70
2021/12/22 10:08:16;;;;;;;0.73;0.53;;;-0.70;99.90;;;;;;5034665;28;20272;-70
2021/12/22 10:11:08;;;;;;;1.13;1.13;;;-0.70;99.90;;;;;;5035071;28;20184;-69
2021/12/22 10:13:35;;;;;;;2.03;1.90;;;-0.70;99.90;;;;;;5021703;28;20280;-69
2021/12/22 10:16:11;;;;;;;0.93;0.93;;;-0.60;99.90;;;;;;5034985;28;20189;-69
2021/12/22 10:18:36;;;;;;;0.20;0.20;;;-0.60;99.90;;;;;;5035542;28;20211;-69
2021/12/22 10:21:17;;;;;;;0.53;0.53;;;-0.50;99.90;;;;;;5033683;28;20181;-70
2021/12/22 10:23:49;;;;;;;0.40;0.40;;;-0.50;99.90;;;;;;5033984;28;20174;-67
2021/12/22 10:26:18;;;;;;;2.27;2.17;;;-0.30;99.90;;;;;;5033728;28;20206;-70
2021/12/22 10:28:51;;;;;;;0.90;0.90;;;-0.30;99.90;;;;;;5034040;28;20194;-69
2021/12/22 10:31:19;;;;;;;4.43;3.83;;;-0.20;99.90;;;;;;5033910;28;20273;-72
2021/12/22 10:33:46;;;;;;;0.67;0.67;;;-0.20;99.90;;;;;;5033642;28;20182;-69
2021/12/22 10:36:18;;;;;;;1.53;1.43;;;-0.10;99.90;;;;;;5032823;28;20186;-69
2021/12/22 10:38:52;;;;;;;1.00;1.00;;;-0.10;99.90;;;;;;5033619;28;20604;-70
2021/12/22 10:41:19;;;;;;;0.20;0.20;;;0.00;99.90;;;;;;5033366;28;20256;-70
2021/12/22 10:43:48;;;;;;;0.50;0.50;;;0.00;99.90;;;;;;5033444;28;20178;-70
2021/12/22 10:46:25;;;;;;;2.70;2.60;;;0.10;99.90;;;;;;5011907;28;20185;-69
2021/12/22 10:49:19;;;;;;;2.77;2.07;;;0.20;99.90;;;;;;5033354;28;20238;-72
2021/12/22 10:51:57;;;;;;;2.63;2.43;;;0.30;99.90;;;;;;5033906;28;20185;-72
2021/12/22 10:54:34;;;;;;;0.50;0.50;;;0.40;99.90;;;;;;5033576;28;20569;-69
2021/12/22 10:57:01;;;;;;;0.93;0.93;;;0.30;99.90;;;;;;5033529;28;20186;-71
2021/12/22 10:59:27;;;;;;;1.43;1.33;;;0.40;99.90;;;;;;5015626;28;20301;-71
2021/12/22 11:02:31;;;;;;;2.90;2.27;;;0.30;99.90;;;;;;5015663;28;20332;-69
2021/12/22 11:04:45;;;;;;;2.43;2.23;;;0.30;99.90;;;;;;5030506;28;20189;-69
2021/12/22 11:07:19;;;;;;;0.30;0.30;;;0.30;99.90;;;;;;5033330;28;20261;-69
2021/12/22 11:09:45;;;;;;;3.00;1.60;;;0.40;99.90;;;;;;5015521;28;20201;-69
2021/12/22 11:12:13;;;;;;;0.20;0.20;;;0.50;99.90;;;;;;5033300;28;20193;-69
2021/12/22 11:14:47;;;;;;;1.03;1.03;;;0.60;99.90;;;;;;5033219;28;20228;-70
2021/12/22 11:17:19;;;;;;;2.10;2.00;;;0.90;99.90;;;;;;5032825;28;20336;-67
2021/12/22 11:20:04;;;;;;;0.83;0.83;;;1.10;99.90;;;;;;5015406;28;20719;-72
2021/12/22 11:22:53;;;;;;;1.27;1.20;;;1.30;99.90;;;;;;5032912;28;20582;-67
2021/12/22 11:25:22;;;;;;;0.10;0.10;;;1.40;99.90;;;;;;5015158;28;20178;-71
2021/12/22 11:27:50;;;;;;;0.77;0.77;;;1.60;99.90;;;;;;5032745;28;20253;-70
2021/12/22 11:30:15;;;;;;;1.30;1.23;;;1.60;99.90;;;;;;5033182;28;20701;-71
2021/12/22 11:32:43;;;;;;;1.70;1.60;;;1.60;99.90;;;;;;5032677;28;20257;-69
2021/12/22 11:35:11;;;;;;;2.33;1.93;;;1.40;99.90;;;;;;5032931;28;20264;-70
2021/12/22 11:37:37;;;;;;;1.20;1.20;;;1.40;99.90;;;;;;5032951;28;20184;-68
2021/12/22 11:40:05;;;;;;;1.90;1.73;;;1.30;99.90;;;;;;5014910;28;20206;-69
2021/12/22 11:42:32;;;;;;;0.40;0.40;;;1.20;99.90;;;;;;5020197;28;20210;-72
2021/12/22 11:45:17;;;;;;;0.87;0.87;;;1.20;99.90;;;;;;5033122;28;20181;-69
2021/12/22 11:47:46;;;;;;;0.37;0.30;;;1.20;99.90;;;;;;5032709;28;20169;-70
2021/12/22 11:50:18;;;;;;;1.30;1.30;;;1.20;99.90;;;;;;5015508;28;20197;-69
2021/12/22 11:53:02;;;;;;;1.20;1.20;;;1.30;99.90;;;;;;5032138;28;20181;-66
2021/12/22 11:55:44;;;;;;;3.60;2.37;;;1.30;99.90;;;;;;5015093;28;20636;-68
2021/12/22 11:58:34;;;;;;;1.00;0.93;;;1.30;99.90;;;;;;5032631;28;20178;-68
2021/12/22 12:01:14;;;;;;;0.83;0.53;;;1.20;99.90;;;;;;5032940;28;20193;-69
2021/12/22 12:03:44;;;;;;;0.70;0.70;;;1.20;99.90;;;;;;5015358;28;20177;-69
2021/12/22 12:06:19;;;;;;;3.97;2.27;;;1.30;99.90;;;;;;5014767;28;20192;-68
2021/12/22 12:08:58;;;;;;;2.70;2.30;;;1.30;99.90;;;;;;5033419;28;20309;-72
2021/12/22 12:11:34;;;;;;;1.77;1.70;;;1.40;99.90;;;;;;5015196;28;20309;-68
2021/12/22 12:14:10;;;;;;;2.23;2.10;;;1.70;99.90;;;;;;5015912;28;20268;-69
2021/12/22 12:22:27;;;;;;;3.33;1.27;;;2.00;99.90;;;;;;5033437;28;20221;-67
2021/12/22 12:25:11;;;;;;;1.27;1.27;;;2.80;99.90;;;;;;5034036;28;20182;-70
2021/12/22 12:27:40;;;;;;;2.17;2.07;;;3.50;99.90;;;;;;5033982;28;20187;-69
2021/12/22 12:30:30;;;;;;;1.77;1.47;;;3.10;99.90;;;;;;5034754;28;20201;-71
2021/12/22 12:32:57;;;;;;;1.23;1.13;;;2.50;99.90;;;;;;5031922;28;20543;-69
2021/12/22 12:35:28;;;;;;;0.77;0.77;;;2.30;99.90;;;;;;5031873;28;20174;-69
2021/12/22 12:38:05;;;;;;;2.30;0.77;;;2.30;99.90;;;;;;5031938;28;20682;-69
2021/12/22 12:41:02;;;;;;;2.47;2.37;;;2.20;99.90;;;;;;5031990;28;20169;-70
2021/12/22 12:43:40;;;;;;;0.80;0.80;;;2.20;99.90;;;;;;5013937;28;20209;-69
2021/12/22 12:46:21;;;;;;;2.80;2.03;;;2.10;99.90;;;;;;5031094;28;20185;-69
2021/12/22 12:48:50;;;;;;;0.70;0.70;;;2.20;99.90;;;;;;5031886;28;20294;-70
2021/12/22 12:51:17;;;;;;;0.23;0.23;;;2.20;99.90;;;;;;5014392;28;20183;-70
2021/12/22 12:53:49;;;;;;;0.50;0.50;;;2.20;99.90;;;;;;5032287;28;20680;-70
2021/12/22 12:56:16;;;;;;;1.90;1.80;;;2.30;99.90;;;;;;5013887;28;20189;-70
2021/12/22 12:58:52;;;;;;;0.73;0.73;;;2.50;99.90;;;;;;5032968;28;20308;-70
2021/12/22 13:01:18;;;;;;;0.60;0.60;;;2.80;99.90;;;;;;5034519;28;20177;-70
2021/12/22 13:03:48;;;;;;;1.27;1.27;;;2.90;99.90;;;;;;5018240;28;20655;-71
2021/12/22 13:06:14;;;;;;;0.30;0.30;;;3.00;99.90;;;;;;5017251;28;20181;-71
2021/12/22 13:08:40;;;;;;;3.20;1.57;;;3.00;99.90;;;;;;5035264;28;20278;-69
2021/12/22 13:11:12;;;;;;;0.33;0.33;;;3.20;99.90;;;;;;5034858;28;20390;-69
2021/12/22 13:15:46;;;;;;;6.03;1.20;;;3.50;99.90;;;;;;5034740;28;20268;-72
2021/12/22 13:16:40;;;;;;;1.50;1.40;;;3.80;99.90;;;;;;5034877;28;20574;-69
2021/12/22 13:19:06;;;;;;;0.47;0.47;;;3.60;99.90;;;;;;5035738;28;20213;-70
2021/12/22 13:21:31;;;;;;;1.60;1.50;;;3.70;99.90;;;;;;5017976;28;20198;-70
2021/12/22 13:23:57;;;;;;;0.30;0.30;;;3.90;99.90;;;;;;5017712;28;20182;-70
2021/12/22 13:26:22;;;;;;;3.80;3.03;;;3.60;99.90;;;;;;5034948;28;20187;-70